»·PEaware :: N915TB KSNA-KHND

N915TB :: KSNA-KHND

FLIGHT INFORMATION

Flight Status: Arrived
Operator: Privately registered:
United States
More flights under this callsign
Pilot: Jake M. (20491)
Aircraft: SOCATA TBM-900
(TBM9)
More flights by this aircraft type
Origin: KSNA John Wayne-Orange Co
United States
Destination: KHND Henderson
United States
More flights between these airports :: More routes between these airports
Route: +MUSEL8 DAG V587 BLD
File this flight plan on PilotEdge
Remarks:
Altitude:
(Current/Filed)
25,000ft
Speed:
(Current/Filed)
315kts
Departed: 16-Oct-19 08:30 PM
Arrived: 16-Oct-19 09:21 PM
Distance/Time
Traveled:
193nm/0:51
Distance/Time
To Go:
Arrived

Flight Plot

Page will automatically refresh every two minutes.

Flight plan parsing failed; only flown route is shown


Map Options




Map Legend


Flown Route
Filed Route
Departure Airport
Arrival Airport
Navaid (VOR, NDB)
Fix

Horizontal Profiles

Position Reports

Time Latitude Longitude Heading Altitude Ground
Speed
16-Oct-19 20:17 33.672637 -117.866160 258 46ft 0kts
16-Oct-19 20:18 33.672637 -117.866160 258 46ft 0kts
16-Oct-19 20:19 33.672637 -117.866160 258 46ft 0kts
16-Oct-19 20:20 33.672637 -117.866160 258 46ft 0kts
16-Oct-19 20:21 33.672637 -117.866160 258 46ft 0kts
16-Oct-19 20:22 33.672637 -117.866160 258 46ft 0kts
16-Oct-19 20:23 33.672637 -117.866160 258 46ft 0kts
16-Oct-19 20:24 33.672772 -117.866855 304 46ft 0kts
16-Oct-19 20:25 33.672772 -117.866855 304 46ft 0kts
16-Oct-19 20:26 33.672772 -117.866855 304 46ft 0kts
16-Oct-19 20:27 33.675733 -117.866080 27 44ft 24kts
16-Oct-19 20:28 33.680386 -117.864603 298 39ft 11kts
16-Oct-19 20:29 33.674042 -117.869823 206 99ft 105kts
16-Oct-19 20:30 33.640251 -117.886600 188 1984ft 139kts
16-Oct-19 20:31 33.602339 -117.893504 188 4128ft 137kts
16-Oct-19 20:32 33.562888 -117.900683 189 5037ft 169kts
16-Oct-19 20:33 33.531038 -117.938410 261 6270ft 183kts
16-Oct-19 20:34 33.557624 -117.978711 343 8372ft 190kts
16-Oct-19 20:35 33.609605 -117.996291 343 10353ft 200kts
16-Oct-19 20:36 33.664546 -118.014745 341 12104ft 212kts
16-Oct-19 20:37 33.722354 -118.034196 340 13957ft 220kts
16-Oct-19 20:38 33.790863 -118.047449 27 13997ft 275kts
16-Oct-19 20:39 33.853216 -117.991579 38 14347ft 274kts
16-Oct-19 20:41 33.909201 -117.940813 37 16222ft 236kts
16-Oct-19 20:42 33.959018 -117.895610 36 18139ft 212kts
16-Oct-19 20:43 34.007175 -117.851902 37 20002ft 226kts
16-Oct-19 20:44 34.058429 -117.805265 37 21863ft 236kts
16-Oct-19 20:45 34.105916 -117.750145 50 23607ft 245kts
16-Oct-19 20:46 34.152581 -117.687143 49 25062ft 272kts
16-Oct-19 20:47 34.209385 -117.610526 49 25097ft 327kts
16-Oct-19 20:48 34.272994 -117.524509 49 25108ft 349kts
16-Oct-19 20:49 34.339161 -117.434799 48 25104ft 356kts
16-Oct-19 20:50 34.404662 -117.345765 49 25102ft 357kts
16-Oct-19 20:51 34.472170 -117.253774 49 25000ft 359kts
16-Oct-19 20:52 34.538726 -117.162817 49 24995ft 350kts
16-Oct-19 20:53 34.603996 -117.073408 49 25006ft 351kts
16-Oct-19 20:54 34.669810 -116.983009 49 25016ft 354kts
16-Oct-19 20:55 34.735929 -116.891949 48 25023ft 355kts
16-Oct-19 20:56 34.802344 -116.800251 48 24985ft 356kts
16-Oct-19 20:57 34.868680 -116.708401 48 24943ft 356kts
16-Oct-19 20:57 34.923788 -116.631933 48 24931ft 355kts
16-Oct-19 20:59 34.990121 -116.516171 63 24932ft 353kts
16-Oct-19 21:00 35.037492 -116.409341 63 24934ft 353kts
16-Oct-19 21:00 35.076303 -116.321731 63 24928ft 353kts
16-Oct-19 21:02 35.130699 -116.198515 63 24922ft 352kts
16-Oct-19 21:02 35.170055 -116.109079 63 24919ft 351kts
16-Oct-19 21:03 35.216915 -116.002295 63 24908ft 352kts
16-Oct-19 21:05 35.271235 -115.878116 63 24334ft 346kts
16-Oct-19 21:06 35.319186 -115.774977 48 22589ft 347kts
16-Oct-19 21:06 35.374292 -115.702214 48 21180ft 343kts
16-Oct-19 21:07 35.439175 -115.615646 48 19394ft 337kts
16-Oct-19 21:08 35.502387 -115.531080 49 16935ft 331kts
16-Oct-19 21:09 35.564980 -115.447049 49 14400ft 325kts
16-Oct-19 21:10 35.625768 -115.365350 49 12027ft 314kts
16-Oct-19 21:11 35.682443 -115.288998 50 10131ft 293kts
16-Oct-19 21:12 35.731987 -115.222102 49 8468ft 239kts
16-Oct-19 21:13 35.784542 -115.180313 351 6986ft 220kts
16-Oct-19 21:14 35.846928 -115.177398 11 6408ft 232kts
16-Oct-19 21:15 35.912285 -115.170406 355 5420ft 229kts
16-Oct-19 21:16 35.970974 -115.176171 355 4345ft 188kts
16-Oct-19 21:17 36.017245 -115.171503 55 3030ft 159kts
16-Oct-19 21:18 36.007849 -115.135889 170 2861ft 114kts
16-Oct-19 21:19 35.976817 -115.135395 180 2414ft 87kts
16-Oct-19 21:20 35.970901 -115.136253 282 2439ft 3kts
16-Oct-19 21:21 35.974413 -115.137298 271 2422ft 13kts
16-Oct-19 21:22 35.974116 -115.137673 180 2423ft 0kts
16-Oct-19 21:23 35.974116 -115.137673 180 2423ft 0kts
16-Oct-19 21:24 35.974116 -115.137673 180 2423ft 0kts

Navigation Log

Ident Type
Flight plan parsing failed, navigation log unavailable